createdAt,value
2022-09-11T00:56:43.717Z,99937.60
2022-09-11T01:01:49.230Z,99937.60
2022-09-11T01:06:58.194Z,99931.20
2022-09-11T01:12:32.056Z,99926.20
2022-09-11T01:18:15.579Z,99928.60
2022-09-11T01:24:27.569Z,99930.80
2022-09-11T01:29:43.168Z,99919.20
2022-09-11T01:35:13.300Z,99923.00
2022-09-11T01:40:32.133Z,99921.40
2022-09-11T01:45:40.546Z,99920.00
2022-09-11T01:50:50.250Z,99915.80
2022-09-11T01:56:03.617Z,99912.80
2022-09-11T02:01:26.115Z,99912.60
2022-09-11T02:06:58.243Z,99914.40
2022-09-11T02:12:09.433Z,99915.20
2022-09-11T02:17:27.185Z,99908.80
2022-09-11T02:22:31.490Z,99915.60
2022-09-11T02:27:37.604Z,99913.00
2022-09-11T02:32:45.622Z,99909.40
2022-09-11T02:38:15.760Z,99905.60
2022-09-11T02:43:58.253Z,99902.00
2022-09-11T02:49:20.679Z,99904.00
2022-09-11T02:54:45.636Z,99900.20
2022-09-11T03:00:00.717Z,99895.40
2022-09-11T03:05:08.385Z,99897.20
2022-09-11T03:10:12.786Z,99895.80
2022-09-11T03:15:17.930Z,99893.80
2022-09-11T03:20:22.483Z,99892.60
2022-09-11T03:25:28.565Z,99889.80
2022-09-11T03:30:33.704Z,99894.00
2022-09-11T03:35:37.938Z,99892.40
2022-09-11T03:40:44.778Z,99887.40
2022-09-11T03:45:52.743Z,99889.40
2022-09-11T03:50:57.059Z,99890.20
2022-09-11T03:56:04.476Z,99897.00
2022-09-11T04:01:19.541Z,99896.00
2022-09-11T04:06:23.752Z,99893.20
2022-09-11T04:11:27.887Z,99889.00
2022-09-11T04:16:35.026Z,99893.60
2022-09-11T04:21:43.018Z,99892.00
2022-09-11T04:26:47.771Z,99882.60
2022-09-11T04:31:52.053Z,99880.40
2022-09-11T04:36:56.657Z,99877.80
2022-09-11T04:42:02.419Z,99877.00
2022-09-11T04:47:06.365Z,99878.20
2022-09-11T04:52:10.497Z,99873.80
2022-09-11T04:57:15.156Z,99873.80
2022-09-11T05:02:20.659Z,99872.20
2022-09-11T05:07:27.905Z,99873.80
2022-09-11T05:12:33.026Z,99870.20
2022-09-11T05:17:38.017Z,99870.60
2022-09-11T05:22:42.957Z,99870.40
2022-09-11T05:27:46.916Z,99872.00
2022-09-11T05:32:56.155Z,99867.00
2022-09-11T05:38:00.004Z,99858.20
2022-09-11T05:43:03.937Z,99857.80
2022-09-11T05:48:07.866Z,99857.80
2022-09-11T05:53:12.301Z,99862.80
2022-09-11T05:58:17.947Z,99867.20
2022-09-11T06:03:21.908Z,99850.80
2022-09-11T06:08:25.945Z,99848.20
2022-09-11T06:13:33.135Z,99856.00
2022-09-11T06:18:37.487Z,99865.00
2022-09-11T06:23:42.065Z,99863.20
2022-09-11T06:28:46.067Z,99863.40
2022-09-11T06:33:52.013Z,99866.20
2022-09-11T06:38:58.331Z,99860.40
2022-09-11T06:44:03.426Z,99862.40
2022-09-11T06:49:08.306Z,99859.80
2022-09-11T06:54:13.451Z,99861.80
2022-09-11T06:59:17.812Z,99858.20
2022-09-11T07:04:23.831Z,99855.00
2022-09-11T07:09:29.577Z,99852.00
2022-09-11T07:14:35.739Z,99849.00
2022-09-11T07:19:40.536Z,99842.00
2022-09-11T07:24:46.549Z,99841.60
2022-09-11T07:29:51.138Z,99841.40
2022-09-11T07:34:55.611Z,99837.00
2022-09-11T07:40:00.931Z,99836.20
2022-09-11T07:45:10.659Z,99838.20
2022-09-11T07:50:15.009Z,99834.60
2022-09-11T07:55:22.488Z,99827.60
2022-09-11T08:00:27.660Z,99833.00
2022-09-11T08:05:32.869Z,99831.40
2022-09-11T08:10:41.340Z,99832.80
